Time;durP1;ratioP1;P1;durP2;ratioP2;P2;SDS_P1;SDS_P2;PMS_P1;PMS_P2;Temp;Humidity;BMP_temperature;BMP_pressure;BME280_temperature;BME280_humidity;BME280_pressure;Samples;Min_cycle;Max_cycle;Signal;HPM_P1;HPM_P2
2023/05/31 00:02:13;;;;;;;1.60;1.50;;;18.50;53.50;;;;;;5014331;28;20046;-79
2023/05/31 00:04:39;;;;;;;1.98;1.65;;;18.40;53.80;;;;;;4997618;28;20034;-79
2023/05/31 00:07:06;;;;;;;2.30;1.80;;;18.40;53.60;;;;;;5031281;28;20050;-77
2023/05/31 00:09:32;;;;;;;2.25;1.70;;;18.40;53.70;;;;;;5013881;28;20073;-82
2023/05/31 00:11:58;;;;;;;3.00;1.95;;;18.40;53.70;;;;;;5014168;28;20034;-78
2023/05/31 00:14:23;;;;;;;1.90;1.45;;;18.30;53.70;;;;;;4997262;28;20033;-79
2023/05/31 00:16:49;;;;;;;1.63;1.33;;;18.30;54.40;;;;;;5030342;28;20034;-78
2023/05/31 00:19:15;;;;;;;1.90;1.52;;;18.30;53.80;;;;;;4997090;28;20034;-79
2023/05/31 00:21:44;;;;;;;1.75;1.58;;;18.30;53.90;;;;;;5030223;28;20117;-80
2023/05/31 00:24:10;;;;;;;1.98;1.60;;;18.20;53.80;;;;;;5030019;28;20053;-78
2023/05/31 00:26:35;;;;;;;2.63;2.00;;;18.20;53.80;;;;;;5015058;28;20065;-79
2023/05/31 00:29:01;;;;;;;1.83;1.42;;;18.20;53.90;;;;;;4997542;28;20041;-79
2023/05/31 00:31:27;;;;;;;3.45;1.95;;;18.20;54.00;;;;;;4998173;28;20034;-79
2023/05/31 00:33:53;;;;;;;1.63;1.42;;;18.10;54.00;;;;;;4998382;28;20034;-81
2023/05/31 00:36:19;;;;;;;3.08;1.70;;;18.10;54.00;;;;;;4998430;28;20054;-78
2023/05/31 00:38:45;;;;;;;2.22;1.50;;;18.10;54.00;;;;;;5013781;28;20608;-79
2023/05/31 00:41:11;;;;;;;1.88;1.60;;;18.10;54.10;;;;;;5046724;28;20447;-79
2023/05/31 00:43:36;;;;;;;2.00;1.63;;;18.00;54.10;;;;;;5014021;28;20347;-78
2023/05/31 00:46:02;;;;;;;1.90;1.60;;;18.00;54.10;;;;;;4997003;28;20038;-79
2023/05/31 00:48:29;;;;;;;2.47;1.75;;;17.90;54.10;;;;;;5013332;28;20040;-80
2023/05/31 00:50:55;;;;;;;1.98;1.70;;;17.90;54.20;;;;;;5029853;28;20117;-78
2023/05/31 00:53:22;;;;;;;2.47;1.70;;;17.90;54.20;;;;;;5013665;28;20054;-78
2023/05/31 00:55:51;;;;;;;1.90;1.52;;;17.90;54.30;;;;;;5030081;28;20062;-78
2023/05/31 00:58:17;;;;;;;3.00;2.10;;;17.90;54.30;;;;;;5030012;28;20041;-80
2023/05/31 01:00:43;;;;;;;2.53;1.80;;;17.80;54.30;;;;;;4997153;28;20386;-79
2023/05/31 01:03:12;;;;;;;2.35;1.70;;;17.80;54.40;;;;;;5046271;28;20093;-79
2023/05/31 01:05:39;;;;;;;3.05;1.85;;;17.80;54.40;;;;;;4996523;28;20050;-79
2023/05/31 01:08:05;;;;;;;2.35;1.70;;;17.70;54.30;;;;;;4998947;28;20450;-78
2023/05/31 01:10:31;;;;;;;2.90;1.80;;;17.70;54.50;;;;;;5013998;28;20034;-78
2023/05/31 01:13:13;;;;;;;2.22;1.70;;;17.70;54.50;;;;;;4996654;28;20056;-78
2023/05/31 01:15:46;;;;;;;3.17;1.90;;;17.70;54.60;;;;;;4995951;28;20032;-79
2023/05/31 01:18:31;;;;;;;2.10;1.60;;;17.70;54.70;;;;;;5028977;28;20489;-78
2023/05/31 01:21:01;;;;;;;2.60;1.85;;;17.60;54.70;;;;;;4996774;28;20022;-79
2023/05/31 01:23:33;;;;;;;2.90;2.10;;;17.60;54.60;;;;;;5029427;28;20028;-81
2023/05/31 01:26:01;;;;;;;3.15;1.80;;;17.50;54.60;;;;;;4996688;28;20489;-78
2023/05/31 01:28:32;;;;;;;2.88;1.98;;;17.50;54.70;;;;;;4996449;28;20057;-79
2023/05/31 01:31:01;;;;;;;2.08;1.58;;;17.50;54.80;;;;;;5029526;28;20041;-78
2023/05/31 01:33:27;;;;;;;3.03;1.90;;;17.50;54.90;;;;;;5028871;28;20026;-79
2023/05/31 01:35:56;;;;;;;2.38;2.00;;;17.40;54.80;;;;;;5029178;28;20038;-79
2023/05/31 01:38:22;;;;;;;3.65;2.28;;;17.40;54.80;;;;;;5029097;28;20045;-79
2023/05/31 01:40:48;;;;;;;2.40;1.85;;;17.40;54.90;;;;;;4996355;28;20036;-79
2023/05/31 01:43:16;;;;;;;2.30;1.83;;;17.40;54.90;;;;;;5028990;28;20038;-80
2023/05/31 01:45:42;;;;;;;3.13;2.03;;;17.30;54.90;;;;;;4996884;28;20547;-79
2023/05/31 01:48:10;;;;;;;2.65;1.95;;;17.30;55.00;;;;;;5012942;28;20026;-79
2023/05/31 01:50:36;;;;;;;3.17;2.03;;;17.30;55.00;;;;;;5029066;28;20033;-78
2023/05/31 01:53:03;;;;;;;2.20;1.65;;;17.30;55.10;;;;;;5028585;28;20026;-79
2023/05/31 01:55:30;;;;;;;2.72;1.90;;;17.20;55.10;;;;;;5012848;28;20037;-79
2023/05/31 01:57:57;;;;;;;2.72;2.03;;;17.20;55.10;;;;;;4996353;28;20045;-78
2023/05/31 02:00:23;;;;;;;2.92;2.10;;;17.20;55.20;;;;;;5028774;28;20120;-79
2023/05/31 02:02:50;;;;;;;2.67;1.83;;;17.10;55.20;;;;;;4996292;28;20121;-79
2023/05/31 02:05:16;;;;;;;3.35;2.25;;;17.10;55.20;;;;;;5013449;28;20034;-79
2023/05/31 02:07:43;;;;;;;2.65;2.08;;;17.10;55.20;;;;;;5045593;28;20038;-79
2023/05/31 02:10:10;;;;;;;3.22;2.13;;;17.10;55.30;;;;;;5029328;28;20036;-79
2023/05/31 02:12:38;;;;;;;3.05;2.40;;;17.00;55.30;;;;;;5045419;28;20033;-79
2023/05/31 02:15:10;;;;;;;3.75;2.50;;;17.00;55.40;;;;;;5045036;28;20545;-79
2023/05/31 02:17:40;;;;;;;3.75;2.50;;;17.00;55.50;;;;;;5028531;28;20026;-80
2023/05/31 02:20:12;;;;;;;3.45;2.40;;;17.00;55.50;;;;;;4997029;28;20041;-80
2023/05/31 02:22:42;;;;;;;3.78;2.83;;;17.00;55.60;;;;;;5028655;28;20049;-80
2023/05/31 02:25:12;;;;;;;3.30;2.30;;;17.00;55.60;;;;;;5028633;28;20547;-79
2023/05/31 02:27:41;;;;;;;3.92;2.78;;;16.90;56.20;;;;;;5012519;28;20054;-79
2023/05/31 02:30:08;;;;;;;4.30;2.88;;;16.90;55.60;;;;;;5030987;28;20041;-79
2023/05/31 02:32:35;;;;;;;3.78;2.42;;;16.90;55.60;;;;;;5032430;28;20121;-79
2023/05/31 02:35:09;;;;;;;3.33;2.40;;;16.90;55.70;;;;;;4999474;28;20061;-79
2023/05/31 02:37:37;;;;;;;3.83;2.47;;;16.90;55.80;;;;;;5017236;28;20025;-80
2023/05/31 02:40:09;;;;;;;4.25;2.70;;;16.80;55.70;;;;;;5032043;28;20065;-79
2023/05/31 02:42:44;;;;;;;3.90;2.78;;;16.80;55.80;;;;;;5016684;28;20482;-79
2023/05/31 02:45:10;;;;;;;4.57;2.88;;;16.80;55.90;;;;;;4999529;28;20566;-79
2023/05/31 02:47:38;;;;;;;4.80;2.90;;;16.80;55.90;;;;;;5048745;28;20026;-79
2023/05/31 02:50:09;;;;;;;4.70;2.97;;;16.70;55.90;;;;;;4999253;28;20038;-80
2023/05/31 02:52:40;;;;;;;3.92;2.70;;;16.80;56.00;;;;;;5032514;28;20114;-80
2023/05/31 02:55:14;;;;;;;4.13;2.50;;;16.70;56.00;;;;;;5000958;28;20417;-79
2023/05/31 02:57:59;;;;;;;4.60;3.05;;;16.70;56.00;;;;;;5015628;28;20364;-80
2023/05/31 03:00:25;;;;;;;4.10;2.72;;;16.70;56.10;;;;;;5015517;28;20030;-78
2023/05/31 03:02:52;;;;;;;4.05;2.70;;;16.70;56.10;;;;;;4999157;28;20528;-80
2023/05/31 03:05:29;;;;;;;4.68;3.08;;;16.60;56.20;;;;;;5000607;28;20038;-79
2023/05/31 03:07:55;;;;;;;4.53;3.00;;;16.60;56.20;;;;;;5049175;28;20077;-79
2023/05/31 03:10:21;;;;;;;4.60;3.08;;;16.60;56.20;;;;;;5015651;28;20461;-79
2023/05/31 03:12:47;;;;;;;4.28;3.25;;;16.60;56.30;;;;;;5031869;28;20105;-79
2023/05/31 03:15:13;;;;;;;4.40;3.13;;;16.60;56.30;;;;;;4999223;28;20413;-79
2023/05/31 03:17:41;;;;;;;4.95;3.22;;;16.50;56.30;;;;;;4999125;28;20026;-79
2023/05/31 03:20:08;;;;;;;4.55;2.97;;;16.50;56.40;;;;;;4982711;28;20049;-79
2023/05/31 03:22:35;;;;;;;5.72;3.08;;;16.50;56.40;;;;;;5032197;28;20101;-78
2023/05/31 03:25:03;;;;;;;5.32;3.25;;;16.50;56.40;;;;;;4998786;28;20399;-78
2023/05/31 03:27:30;;;;;;;4.30;2.97;;;16.50;56.40;;;;;;5014719;28;20034;-79
2023/05/31 03:29:56;;;;;;;5.03;3.22;;;16.50;56.50;;;;;;4982514;28;20022;-80
2023/05/31 03:32:22;;;;;;;4.85;3.30;;;16.40;56.50;;;;;;5031422;28;20455;-79
2023/05/31 03:34:48;;;;;;;4.50;3.22;;;16.40;56.60;;;;;;4998965;28;20045;-79
2023/05/31 03:37:14;;;;;;;5.13;3.25;;;16.40;56.60;;;;;;5024391;28;20042;-80
2023/05/31 03:39:45;;;;;;;5.03;3.08;;;16.40;56.60;;;;;;5032204;28;20034;-79
2023/05/31 03:42:22;;;;;;;4.45;3.25;;;16.40;56.60;;;;;;5015605;28;20045;-79
2023/05/31 03:44:50;;;;;;;4.47;3.15;;;16.40;56.60;;;;;;5014446;28;20026;-80
2023/05/31 03:47:16;;;;;;;4.18;3.00;;;16.40;56.60;;;;;;5048455;28;20053;-79
2023/05/31 03:49:42;;;;;;;4.78;3.30;;;16.30;56.60;;;;;;5014818;28;20033;-79
2023/05/31 03:52:12;;;;;;;5.82;3.55;;;16.40;56.60;;;;;;5014844;28;20034;-79
2023/05/31 03:54:39;;;;;;;5.40;3.53;;;16.30;56.70;;;;;;5049584;28;20414;-81
2023/05/31 03:57:06;;;;;;;5.80;3.53;;;16.30;56.70;;;;;;5000114;28;20137;-78
2023/05/31 03:59:32;;;;;;;4.68;3.20;;;16.30;56.80;;;;;;5000330;28;20049;-79
2023/05/31 04:01:57;;;;;;;5.03;3.45;;;16.30;56.80;;;;;;5015715;28;20429;-80
2023/05/31 04:04:25;;;;;;;4.13;2.85;;;16.20;56.70;;;;;;5047549;28;20030;-80
2023/05/31 04:06:52;;;;;;;4.97;3.40;;;16.30;56.80;;;;;;4997658;28;20065;-79
2023/05/31 04:09:19;;;;;;;4.53;3.17;;;16.20;56.80;;;;;;5014280;28;20080;-79
2023/05/31 04:11:45;;;;;;;5.32;3.30;;;16.20;56.90;;;;;;4998077;28;20030;-79
2023/05/31 04:14:12;;;;;;;4.88;3.30;;;16.20;56.90;;;;;;4997844;28;20518;-80
2023/05/31 04:16:38;;;;;;;5.53;3.80;;;16.20;56.90;;;;;;5046662;28;20038;-78
2023/05/31 04:19:04;;;;;;;5.82;3.80;;;16.20;56.90;;;;;;5014205;28;20033;-78
2023/05/31 04:21:31;;;;;;;4.95;3.70;;;16.20;57.00;;;;;;4997571;28;20018;-78
2023/05/31 04:23:58;;;;;;;5.10;3.67;;;16.20;57.00;;;;;;5030320;28;20068;-78
2023/05/31 04:26:23;;;;;;;5.22;3.63;;;16.20;57.00;;;;;;5030384;28;20391;-79
2023/05/31 04:28:53;;;;;;;5.68;3.83;;;16.10;57.00;;;;;;4997666;28;20030;-79
2023/05/31 04:31:24;;;;;;;5.47;3.75;;;16.10;57.00;;;;;;4998213;28;20077;-79
2023/05/31 04:33:53;;;;;;;6.82;3.88;;;16.10;57.10;;;;;;5013383;28;20026;-80
2023/05/31 04:36:20;;;;;;;5.20;3.67;;;16.10;57.10;;;;;;4997428;28;20494;-79
2023/05/31 04:38:47;;;;;;;5.32;3.58;;;16.10;57.10;;;;;;5013991;28;20124;-79
2023/05/31 04:41:17;;;;;;;6.20;3.78;;;16.10;57.10;;;;;;5030384;28;20061;-79
2023/05/31 04:43:43;;;;;;;5.55;3.65;;;16.10;57.10;;;;;;5030699;28;20049;-79
2023/05/31 04:46:10;;;;;;;6.43;4.00;;;16.10;57.10;;;;;;4997053;28;20057;-79
2023/05/31 04:48:37;;;;;;;5.97;4.13;;;16.00;57.10;;;;;;5013471;28;20124;-79
2023/05/31 04:51:04;;;;;;;5.10;3.60;;;16.10;57.20;;;;;;4997009;28;20481;-84
2023/05/31 04:53:30;;;;;;;5.97;3.90;;;16.10;57.20;;;;;;5013576;28;20061;-79
2023/05/31 04:55:56;;;;;;;5.47;3.85;;;16.10;57.20;;;;;;5029973;28;20030;-79
2023/05/31 04:58:22;;;;;;;6.05;3.75;;;16.00;57.20;;;;;;5013735;28;20036;-78
2023/05/31 05:00:48;;;;;;;6.55;4.40;;;16.00;57.20;;;;;;5029387;28;20113;-79
2023/05/31 05:03:24;;;;;;;4.97;3.58;;;16.00;57.30;;;;;;5050676;28;20032;-81
2023/05/31 05:05:52;;;;;;;5.60;3.95;;;16.00;57.30;;;;;;4988370;28;20045;-82
2023/05/31 05:08:18;;;;;;;4.85;3.53;;;16.00;57.30;;;;;;5034064;28;20022;-81
2023/05/31 05:10:44;;;;;;;5.93;3.97;;;16.00;57.30;;;;;;5030594;28;20084;-80
2023/05/31 05:13:10;;;;;;;5.97;3.90;;;16.00;57.40;;;;;;4981197;28;20018;-82
2023/05/31 05:15:38;;;;;;;5.22;3.90;;;16.00;57.40;;;;;;5013830;28;20044;-81
2023/05/31 05:18:05;;;;;;;6.20;4.18;;;16.00;57.40;;;;;;4996786;28;20037;-81
2023/05/31 05:20:33;;;;;;;5.70;3.50;;;16.00;57.40;;;;;;4996844;28;20044;-79
2023/05/31 05:23:02;;;;;;;6.93;3.75;;;16.00;57.40;;;;;;5045925;28;20026;-80
2023/05/31 05:25:28;;;;;;;6.13;3.97;;;16.00;57.40;;;;;;5013400;28;20061;-78
2023/05/31 05:27:54;;;;;;;5.75;4.07;;;16.00;57.40;;;;;;5029335;28;20119;-80
2023/05/31 05:30:20;;;;;;;5.78;3.90;;;16.00;57.40;;;;;;5012840;28;20069;-80
2023/05/31 05:32:48;;;;;;;5.78;3.92;;;16.00;57.50;;;;;;4980988;28;20032;-84
2023/05/31 05:35:14;;;;;;;5.03;3.65;;;16.00;57.50;;;;;;5012738;28;20109;-80
2023/05/31 05:37:39;;;;;;;5.60;3.95;;;16.00;57.40;;;;;;4995959;28;20022;-81
2023/05/31 05:40:07;;;;;;;5.47;3.65;;;16.00;57.50;;;;;;5029047;28;20022;-82
2023/05/31 05:42:36;;;;;;;6.07;4.20;;;16.00;57.60;;;;;;5012539;28;20479;-81
2023/05/31 05:45:07;;;;;;;5.53;4.05;;;16.00;57.50;;;;;;4996558;28;20034;-81
2023/05/31 05:47:34;;;;;;;6.28;3.85;;;16.00;57.60;;;;;;4997233;28;20490;-82
2023/05/31 05:50:02;;;;;;;5.75;4.28;;;16.00;57.70;;;;;;5013088;28;20042;-80
2023/05/31 05:52:29;;;;;;;6.05;4.32;;;16.00;57.60;;;;;;5029205;28;20474;-83
2023/05/31 05:54:55;;;;;;;6.03;4.10;;;16.00;57.60;;;;;;4995870;28;20037;-81
2023/05/31 05:57:21;;;;;;;6.47;4.25;;;16.00;57.70;;;;;;4996266;28;20046;-79
2023/05/31 05:59:49;;;;;;;5.53;3.70;;;16.00;57.70;;;;;;5045648;28;20041;-80
2023/05/31 06:02:20;;;;;;;6.57;4.10;;;16.00;57.70;;;;;;4997938;28;20034;-81
2023/05/31 06:04:47;;;;;;;5.95;4.43;;;16.10;57.70;;;;;;5041822;28;20022;-80
2023/05/31 06:07:13;;;;;;;6.43;4.03;;;16.10;57.70;;;;;;5020663;28;20058;-81
2023/05/31 06:09:39;;;;;;;5.45;3.83;;;16.00;57.70;;;;;;5002726;28;20065;-81
2023/05/31 06:12:06;;;;;;;6.68;4.10;;;16.00;57.70;;;;;;5052017;28;20040;-80
2023/05/31 06:14:36;;;;;;;5.88;3.97;;;16.00;57.80;;;;;;5020131;28;20128;-79
2023/05/31 06:17:01;;;;;;;5.90;4.10;;;16.10;57.90;;;;;;5035986;28;20135;-79
2023/05/31 06:19:27;;;;;;;6.22;4.28;;;16.10;57.90;;;;;;5002179;28;20030;-80
2023/05/31 06:21:57;;;;;;;5.78;4.15;;;16.10;57.80;;;;;;5035084;28;20030;-80
2023/05/31 06:24:23;;;;;;;5.78;4.28;;;16.10;57.90;;;;;;5035017;28;20034;-79
2023/05/31 06:26:49;;;;;;;5.80;3.53;;;16.10;57.90;;;;;;5002231;28;20104;-79
2023/05/31 06:29:16;;;;;;;6.97;4.03;;;16.10;57.90;;;;;;4987089;28;20030;-79
2023/05/31 06:32:08;;;;;;;6.00;3.38;;;16.10;57.90;;;;;;5019471;28;20041;-78
2023/05/31 06:34:37;;;;;;;5.88;4.07;;;16.10;57.90;;;;;;5051883;28;20104;-78
2023/05/31 06:37:03;;;;;;;5.18;3.72;;;16.10;57.90;;;;;;5051436;28;20486;-78
2023/05/31 06:39:29;;;;;;;6.53;3.55;;;16.10;57.90;;;;;;5002598;28;20029;-79
2023/05/31 06:41:54;;;;;;;5.20;3.47;;;16.20;58.00;;;;;;5018348;28;20026;-79
2023/05/31 06:44:47;;;;;;;6.13;3.88;;;16.20;58.00;;;;;;5013186;28;20463;-78
2023/05/31 06:47:25;;;;;;;5.20;3.45;;;16.20;57.90;;;;;;5033902;28;20042;-79
2023/05/31 06:50:14;;;;;;;4.65;3.08;;;16.20;57.90;;;;;;5004933;28;20045;-79
2023/05/31 06:52:59;;;;;;;5.32;3.40;;;16.20;57.80;;;;;;5033313;28;20470;-78
2023/05/31 06:55:25;;;;;;;4.03;3.03;;;16.20;57.80;;;;;;5034863;28;20042;-79
2023/05/31 06:57:52;;;;;;;5.32;3.40;;;16.20;57.90;;;;;;5002975;28;20077;-79
2023/05/31 07:00:19;;;;;;;4.88;3.33;;;16.20;57.90;;;;;;5002047;28;20062;-80
2023/05/31 07:02:45;;;;;;;4.78;3.30;;;16.30;58.00;;;;;;5018784;28;20034;-79
2023/05/31 07:05:11;;;;;;;4.70;3.28;;;16.30;58.00;;;;;;5001955;28;20463;-79
2023/05/31 07:07:37;;;;;;;5.80;3.42;;;16.30;58.00;;;;;;4998645;28;20050;-79
2023/05/31 07:10:03;;;;;;;5.32;3.58;;;16.30;58.00;;;;;;4966366;28;20138;-79
2023/05/31 07:12:29;;;;;;;5.55;3.28;;;16.30;58.00;;;;;;4998922;28;20031;-80
2023/05/31 07:14:55;;;;;;;4.95;3.55;;;16.40;58.10;;;;;;4998351;28;20026;-79
2023/05/31 07:17:22;;;;;;;4.43;2.97;;;16.40;58.00;;;;;;4995630;28;20065;-80
2023/05/31 07:19:49;;;;;;;4.60;3.20;;;16.40;58.00;;;;;;5028726;28;20034;-79
2023/05/31 07:22:15;;;;;;;4.93;3.40;;;16.50;58.10;;;;;;4978843;28;20027;-79
2023/05/31 07:24:42;;;;;;;4.50;3.05;;;16.50;58.10;;;;;;5011551;28;20502;-79
2023/05/31 07:27:08;;;;;;;6.28;3.63;;;16.50;58.00;;;;;;5011677;28;20031;-79
2023/05/31 07:29:34;;;;;;;5.47;3.47;;;16.50;58.00;;;;;;4995334;28;20041;-79
2023/05/31 07:32:00;;;;;;;4.35;2.92;;;16.60;58.00;;;;;;5011330;28;20030;-77
2023/05/31 07:34:26;;;;;;;5.75;3.20;;;16.60;57.90;;;;;;4995498;28;20383;-78
2023/05/31 07:36:51;;;;;;;5.55;3.53;;;16.70;57.90;;;;;;4995457;28;20432;-78
2023/05/31 07:39:19;;;;;;;4.95;3.25;;;16.70;57.80;;;;;;4994955;28;20391;-78
2023/05/31 07:41:45;;;;;;;5.82;3.22;;;16.80;57.80;;;;;;5012177;28;20030;-78
2023/05/31 07:44:11;;;;;;;5.38;3.00;;;16.80;57.70;;;;;;4995426;28;20030;-77
2023/05/31 07:46:37;;;;;;;4.32;2.80;;;16.90;57.70;;;;;;4979303;28;20035;-78
2023/05/31 07:49:03;;;;;;;5.88;3.25;;;17.00;57.70;;;;;;4995096;28;20030;-77
2023/05/31 07:51:30;;;;;;;4.90;3.28;;;17.00;57.60;;;;;;4995574;28;20049;-79
2023/05/31 07:53:56;;;;;;;4.72;3.10;;;17.10;57.50;;;;;;5001121;28;20041;-76
2023/05/31 07:56:22;;;;;;;5.60;3.50;;;17.20;57.50;;;;;;5017774;28;20039;-78
2023/05/31 07:58:48;;;;;;;3.67;2.60;;;17.20;57.40;;;;;;4981321;28;20044;-79
2023/05/31 08:01:13;;;;;;;4.75;2.67;;;17.30;57.30;;;;;;5028104;28;20069;-78
2023/05/31 08:03:41;;;;;;;4.88;2.78;;;17.40;57.20;;;;;;4995748;28;20032;-78
2023/05/31 08:06:08;;;;;;;5.88;3.13;;;17.50;57.20;;;;;;5002898;28;20046;-79
2023/05/31 08:08:33;;;;;;;4.20;2.90;;;17.60;57.10;;;;;;5014234;28;20397;-78
2023/05/31 08:11:00;;;;;;;4.20;2.70;;;17.60;56.90;;;;;;5014136;28;20101;-79
2023/05/31 08:13:28;;;;;;;3.70;2.58;;;17.70;56.90;;;;;;5014038;28;20054;-78
2023/05/31 08:15:55;;;;;;;4.03;2.88;;;17.80;56.80;;;;;;5013779;28;20049;-77
2023/05/31 08:18:22;;;;;;;3.70;2.35;;;17.90;56.70;;;;;;5047812;28;20133;-78
2023/05/31 08:20:48;;;;;;;4.65;2.90;;;18.00;56.70;;;;;;4997752;28;20034;-77
2023/05/31 08:23:20;;;;;;;4.28;3.05;;;18.10;56.60;;;;;;5046978;28;20104;-77
2023/05/31 08:25:47;;;;;;;3.88;2.60;;;18.20;56.60;;;;;;5047183;28;20558;-78
2023/05/31 08:28:13;;;;;;;3.42;2.33;;;18.30;56.50;;;;;;5013367;28;20556;-77
2023/05/31 08:30:39;;;;;;;5.53;3.20;;;18.40;56.40;;;;;;4997510;28;20065;-77
2023/05/31 08:33:05;;;;;;;4.28;2.83;;;18.40;56.40;;;;;;5046847;28;20034;-77
2023/05/31 08:35:31;;;;;;;4.53;2.72;;;18.60;56.40;;;;;;5003287;28;20057;-78
2023/05/31 08:37:57;;;;;;;4.60;2.78;;;18.60;56.30;;;;;;5019977;28;20057;-82
2023/05/31 08:40:24;;;;;;;4.45;2.65;;;18.80;56.40;;;;;;5031901;28;20052;-79
2023/05/31 08:42:58;;;;;;;4.10;2.45;;;18.80;56.30;;;;;;5031231;28;20459;-78
2023/05/31 08:45:28;;;;;;;;;;;18.90;56.30;;;;;;5031982;28;20501;-77
2023/05/31 08:48:14;;;;;;;3.63;2.13;;;19.00;56.00;;;;;;5014878;28;19909;-78
2023/05/31 08:50:42;;;;;;;3.30;2.10;;;19.10;56.00;;;;;;5013174;28;20544;-79
2023/05/31 08:53:08;;;;;;;2.97;2.03;;;19.30;56.00;;;;;;4997322;28;20109;-79
2023/05/31 08:55:36;;;;;;;3.45;2.20;;;19.30;56.00;;;;;;5014330;28;20038;-80
2023/05/31 08:58:03;;;;;;;4.45;2.25;;;19.40;56.00;;;;;;5013260;28;20034;-80
2023/05/31 09:00:29;;;;;;;4.50;2.63;;;19.50;56.10;;;;;;4996904;28;20033;-78
2023/05/31 09:02:56;;;;;;;3.92;2.40;;;19.60;56.20;;;;;;5029480;28;20034;-78
2023/05/31 09:05:22;;;;;;;3.45;2.33;;;19.70;56.20;;;;;;5045826;28;20129;-78
2023/05/31 09:07:49;;;;;;;2.97;2.25;;;19.80;56.20;;;;;;5029186;28;20112;-77
2023/05/31 09:10:16;;;;;;;4.35;2.33;;;20.00;56.20;;;;;;5013453;28;20061;-77
2023/05/31 09:12:43;;;;;;;3.28;2.10;;;20.00;56.20;;;;;;5012944;28;20041;-79
2023/05/31 09:15:14;;;;;;;3.55;2.35;;;20.10;56.10;;;;;;5046275;28;20383;-80
2023/05/31 09:17:46;;;;;;;2.67;2.05;;;20.30;56.10;;;;;;5014490;28;20068;-80
2023/05/31 09:20:12;;;;;;;3.40;2.13;;;20.40;56.10;;;;;;5012742;28;20037;-78
2023/05/31 09:22:38;;;;;;;3.25;2.05;;;20.40;56.00;;;;;;5028984;28;20026;-75
2023/05/31 09:25:04;;;;;;;3.75;2.03;;;20.50;56.10;;;;;;5029169;28;20036;-77
2023/05/31 09:27:38;;;;;;;3.72;2.35;;;20.70;56.10;;;;;;5013239;28;20037;-76
2023/05/31 09:30:14;;;;;;;3.03;1.88;;;20.80;56.20;;;;;;5029428;28;20042;-75
2023/05/31 09:32:53;;;;;;;4.03;2.25;;;20.90;56.10;;;;;;4996804;28;20109;-78
2023/05/31 09:35:23;;;;;;;2.63;2.08;;;21.00;56.20;;;;;;5013489;28;20064;-74
2023/05/31 09:37:49;;;;;;;2.47;1.73;;;21.10;56.00;;;;;;5045638;28;20084;-77
2023/05/31 09:40:26;;;;;;;3.33;1.58;;;21.20;56.00;;;;;;5012490;28;20026;-76
2023/05/31 09:42:54;;;;;;;3.28;2.10;;;21.30;56.00;;;;;;5028679;28;20026;-77
2023/05/31 09:45:21;;;;;;;2.83;1.85;;;21.40;55.90;;;;;;5013522;28;20033;-78
2023/05/31 09:47:47;;;;;;;2.13;1.70;;;21.60;55.90;;;;;;5028730;28;20028;-78
2023/05/31 09:50:18;;;;;;;3.08;1.83;;;21.60;55.90;;;;;;5012246;28;20026;-77
2023/05/31 09:52:45;;;;;;;2.72;1.90;;;21.70;55.90;;;;;;5012111;28;20040;-79
2023/05/31 09:55:16;;;;;;;2.17;1.70;;;21.80;55.90;;;;;;5029699;28;20065;-79
2023/05/31 09:57:46;;;;;;;1.98;1.48;;;21.90;55.90;;;;;;5028928;28;20069;-78
2023/05/31 10:00:17;;;;;;;3.03;1.92;;;22.00;55.80;;;;;;5013079;28;20036;-79
2023/05/31 10:02:52;;;;;;;3.08;1.70;;;22.20;55.80;;;;;;5029502;28;20037;-81
2023/05/31 10:05:19;;;;;;;2.65;1.60;;;22.30;55.90;;;;;;5013013;28;20026;-79
2023/05/31 10:07:50;;;;;;;2.42;1.80;;;22.40;55.70;;;;;;4995741;28;20053;-78
2023/05/31 10:10:22;;;;;;;2.42;1.70;;;22.50;55.80;;;;;;5013307;28;20022;-77
2023/05/31 10:12:56;;;;;;;1.90;1.60;;;22.60;55.70;;;;;;5012703;28;20030;-78
2023/05/31 10:15:24;;;;;;;2.95;1.67;;;22.60;55.60;;;;;;4996219;28;20037;-80
2023/05/31 10:18:05;;;;;;;3.10;1.70;;;22.80;55.50;;;;;;5045022;28;20092;-78
2023/05/31 10:20:59;;;;;;;2.25;1.48;;;22.90;55.60;;;;;;5046107;28;20026;-77
2023/05/31 10:23:25;;;;;;;2.78;1.65;;;23.00;55.60;;;;;;5012912;28;20095;-76
2023/05/31 10:26:17;;;;;;;1.55;1.33;;;23.10;55.30;;;;;;5012984;28;20045;-76
2023/05/31 10:28:56;;;;;;;2.53;1.60;;;23.20;55.30;;;;;;5028828;28;20116;-76
2023/05/31 10:31:27;;;;;;;3.55;1.70;;;23.30;55.20;;;;;;5013008;28;20139;-76
2023/05/31 10:33:58;;;;;;;2.03;1.40;;;23.40;55.10;;;;;;5013501;28;20110;-78
2023/05/31 10:36:23;;;;;;;1.83;1.33;;;23.50;55.00;;;;;;5012167;28;20038;-77
2023/05/31 10:39:02;;;;;;;2.50;1.80;;;23.60;55.00;;;;;;5011711;28;20400;-77
2023/05/31 10:41:36;;;;;;;3.35;1.70;;;23.70;55.00;;;;;;5013460;28;20417;-80
2023/05/31 10:44:12;;;;;;;3.40;1.70;;;23.80;54.90;;;;;;5014349;28;20094;-78
2023/05/31 10:46:40;;;;;;;2.45;1.50;;;23.90;54.80;;;;;;5017324;28;20041;-78
2023/05/31 10:49:08;;;;;;;2.10;1.40;;;24.00;54.80;;;;;;5012477;28;20034;-78
2023/05/31 10:51:47;;;;;;;2.30;1.58;;;24.10;54.70;;;;;;5016699;28;20025;-77
2023/05/31 10:54:27;;;;;;;2.63;1.65;;;24.20;54.70;;;;;;5032576;28;20550;-78
2023/05/31 10:56:58;;;;;;;3.50;1.70;;;24.30;54.70;;;;;;5032190;28;20486;-79
2023/05/31 10:59:25;;;;;;;3.13;1.73;;;24.30;54.50;;;;;;5032024;28;20124;-77
2023/05/31 11:01:51;;;;;;;2.38;1.58;;;24.40;54.50;;;;;;4999708;28;20462;-78
2023/05/31 11:04:25;;;;;;;3.03;1.55;;;24.50;54.50;;;;;;5016218;28;20037;-77
2023/05/31 11:06:55;;;;;;;3.05;1.63;;;24.50;54.50;;;;;;5019303;28;20073;-79
2023/05/31 11:09:22;;;;;;;3.05;1.60;;;24.60;54.40;;;;;;5019937;28;20045;-77
2023/05/31 11:11:49;;;;;;;3.63;1.98;;;24.60;54.40;;;;;;5016607;28;20022;-77
2023/05/31 11:14:28;;;;;;;2.90;1.58;;;24.70;54.50;;;;;;5014849;28;20037;-79
2023/05/31 11:16:53;;;;;;;1.80;1.40;;;24.80;54.70;;;;;;5014767;28;20037;-77
2023/05/31 11:19:30;;;;;;;2.33;1.63;;;24.80;54.50;;;;;;5016214;28;20494;-78
2023/05/31 11:22:21;;;;;;;3.05;1.73;;;24.80;54.60;;;;;;5016162;28;20037;-77
2023/05/31 11:24:49;;;;;;;3.30;1.80;;;24.90;54.60;;;;;;5016444;28;20038;-76
2023/05/31 11:27:15;;;;;;;2.22;1.70;;;24.90;54.60;;;;;;5015362;28;20044;-76
2023/05/31 11:29:44;;;;;;;2.17;1.50;;;24.90;54.60;;;;;;5031629;28;20038;-76
2023/05/31 11:32:11;;;;;;;3.90;1.85;;;25.00;54.60;;;;;;5015688;28;20380;-76
2023/05/31 11:34:56;;;;;;;2.83;1.40;;;25.00;54.60;;;;;;5031308;28;20041;-76
2023/05/31 11:37:32;;;;;;;3.22;1.70;;;25.00;54.60;;;;;;5015719;28;20045;-78
2023/05/31 11:40:07;;;;;;;2.53;1.50;;;25.10;54.70;;;;;;5016236;28;20053;-76
2023/05/31 11:42:37;;;;;;;3.15;1.45;;;25.10;54.80;;;;;;5014511;28;20371;-77
2023/05/31 11:45:07;;;;;;;2.13;1.52;;;25.10;54.90;;;;;;5030832;28;20169;-75
2023/05/31 11:47:52;;;;;;;2.20;1.65;;;25.10;54.90;;;;;;5014380;28;20053;-78
2023/05/31 11:50:18;;;;;;;;;;;25.20;54.90;;;;;;4998436;28;20034;-77
2023/05/31 11:52:45;;;;;;;2.38;1.60;;;25.20;54.80;;;;;;4998221;28;20278;-76
2023/05/31 11:55:14;;;;;;;1.63;1.50;;;25.20;54.70;;;;;;5016129;28;20029;-77
2023/05/31 11:57:45;;;;;;;2.42;1.48;;;25.20;54.80;;;;;;5014418;28;20042;-75
2023/05/31 12:00:12;;;;;;;2.80;1.63;;;25.20;54.90;;;;;;5014578;28;20375;-74
2023/05/31 12:02:41;;;;;;;2.38;1.60;;;25.30;55.00;;;;;;5015164;28;20454;-77
2023/05/31 12:05:12;;;;;;;2.28;1.48;;;25.30;54.90;;;;;;5047294;28;20076;-76
2023/05/31 12:07:38;;;;;;;3.15;1.60;;;25.20;54.90;;;;;;5030999;28;20132;-77
2023/05/31 12:10:07;;;;;;;2.35;1.48;;;25.30;54.90;;;;;;5015055;28;20058;-77
2023/05/31 12:12:34;;;;;;;3.50;1.90;;;25.30;55.00;;;;;;5015382;28;20084;-77
2023/05/31 12:15:01;;;;;;;2.53;1.63;;;25.30;55.00;;;;;;5013849;28;20030;-77
2023/05/31 12:17:30;;;;;;;3.10;1.65;;;25.40;55.10;;;;;;5015749;28;20034;-75
2023/05/31 12:19:56;;;;;;;4.20;1.50;;;25.40;55.60;;;;;;5014969;28;20112;-76
2023/05/31 12:22:22;;;;;;;3.88;1.80;;;25.40;54.90;;;;;;5015292;28;20434;-76
2023/05/31 12:24:50;;;;;;;3.03;1.75;;;25.40;54.90;;;;;;5030201;28;20026;-75
2023/05/31 12:27:23;;;;;;;3.65;1.65;;;25.40;54.80;;;;;;5013921;28;20124;-76
2023/05/31 12:29:49;;;;;;;2.60;1.63;;;25.40;54.70;;;;;;5013962;28;20442;-77
2023/05/31 12:32:19;;;;;;;2.20;1.50;;;25.40;54.70;;;;;;5014834;28;20109;-76
2023/05/31 12:34:45;;;;;;;2.90;1.80;;;25.40;54.70;;;;;;5015153;28;20038;-76
2023/05/31 12:37:11;;;;;;;2.97;1.70;;;25.40;54.50;;;;;;5013417;28;20045;-76
2023/05/31 12:39:40;;;;;;;4.38;1.83;;;25.40;54.50;;;;;;5029942;28;20022;-76
2023/05/31 12:42:06;;;;;;;2.55;1.90;;;25.50;54.50;;;;;;4997277;28;20092;-76
2023/05/31 12:44:33;;;;;;;3.95;2.00;;;25.50;54.30;;;;;;5013265;28;20030;-75
2023/05/31 12:47:04;;;;;;;3.17;1.80;;;25.50;54.10;;;;;;5029851;28;20112;-76
2023/05/31 12:49:34;;;;;;;2.70;1.70;;;25.50;53.90;;;;;;5014464;28;20115;-76
2023/05/31 12:52:07;;;;;;;4.03;1.75;;;25.50;53.90;;;;;;5014250;28;20113;-75
2023/05/31 12:54:35;;;;;;;2.75;1.80;;;25.50;53.90;;;;;;5029964;28;20056;-76
2023/05/31 12:57:04;;;;;;;3.05;1.85;;;25.60;54.00;;;;;;5029864;28;20042;-75